Time;durP1;ratioP1;P1;durP2;ratioP2;P2;SDS_P1;SDS_P2;PMS_P1;PMS_P2;Temp;Humidity;BMP_temperature;BMP_pressure;BME280_temperature;BME280_humidity;BME280_pressure;Samples;Min_cycle;Max_cycle;Signal;HPM_P1;HPM_P2
2023/03/05 00:01:24;;;;;;;23.48;14.23;;;;;;;7.28;62.96;101832.78;4918762;29;20535;-70
2023/03/05 00:03:52;;;;;;;;;;;;;;;7.34;63.02;101829.00;4922137;29;20052;-70
2023/03/05 00:06:21;;;;;;;22.25;13.52;;;;;;;7.18;63.37;101830.81;4915859;29;20307;-70
2023/03/05 00:08:50;;;;;;;18.70;11.77;;;;;;;7.06;65.05;101832.09;4917250;29;20052;-69
2023/03/05 00:11:19;;;;;;;18.70;11.80;;;;;;;7.16;64.48;101822.03;4892857;29;20064;-69
2023/03/05 00:13:50;;;;;;;18.77;11.33;;;;;;;7.16;64.98;101821.19;4921850;29;20059;-70
2023/03/05 00:16:18;;;;;;;21.58;12.35;;;;;;;6.96;65.99;101821.06;4920297;29;20051;-70
2023/03/05 00:18:46;;;;;;;23.02;14.02;;;;;;;7.05;65.94;101820.28;4919937;29;20066;-71
2023/03/05 00:21:26;;;;;;;20.55;11.45;;;;;;;7.05;67.10;101820.28;4919167;29;20055;-69
2023/03/05 00:23:55;;;;;;;17.25;12.77;;;;;;;7.13;66.52;101819.00;4904969;29;20040;-71
2023/03/05 00:26:25;;;;;;;18.20;11.63;;;;;;;7.11;67.31;101819.25;4920436;29;20044;-71
2023/03/05 00:28:54;;;;;;;22.48;12.43;;;;;;;7.17;67.52;101822.81;4921489;29;20511;-70
2023/03/05 00:31:24;;;;;;;17.13;10.40;;;;;;;7.06;68.00;101821.94;4920889;29;20506;-70
2023/03/05 00:33:56;;;;;;;18.52;11.10;;;;;;;7.21;67.61;101821.22;4921289;29;20071;-70
2023/03/05 00:36:24;;;;;;;16.63;10.82;;;;;;;7.26;67.76;101819.34;4917510;29;20484;-69
2023/03/05 00:38:51;;;;;;;15.15;9.35;;;;;;;7.24;67.99;101824.25;4912095;29;20052;-70
2023/03/05 00:41:19;;;;;;;15.90;9.85;;;;;;;7.04;69.07;101820.56;4924078;29;20067;-70
2023/03/05 00:43:47;;;;;;;13.13;8.27;;;;;;;7.04;69.76;101818.66;4937376;29;20047;-69
2023/03/05 00:46:14;;;;;;;15.60;9.70;;;;;;;7.02;69.84;101820.84;4917979;29;20052;-70
2023/03/05 00:48:42;;;;;;;15.50;8.70;;;;;;;6.79;70.88;101822.03;4919979;29;20060;-70
2023/03/05 00:51:10;;;;;;;19.02;9.77;;;;;;;7.05;70.38;101816.72;4898653;29;20049;-70
2023/03/05 00:53:37;;;;;;;18.70;9.40;;;;;;;7.13;70.57;101822.53;4901874;29;20051;-69
2023/03/05 00:56:05;;;;;;;18.63;9.05;;;;;;;7.29;70.13;101807.00;4917824;29;20056;-70
2023/03/05 00:58:32;;;;;;;22.20;9.55;;;;;;;7.27;70.02;101801.81;4920883;29;20059;-70
2023/03/05 01:01:01;;;;;;;14.82;9.30;;;;;;;7.23;70.28;101808.09;4918810;29;20056;-70
2023/03/05 01:03:33;;;;;;;15.00;9.05;;;;;;;7.10;71.17;101809.38;4904854;29;20404;-70
2023/03/05 01:06:06;;;;;;;16.73;9.40;;;;;;;7.26;71.19;101811.13;4906585;29;20103;-70
2023/03/05 01:08:34;;;;;;;;;;;;;;;6.87;72.45;101801.53;4940404;29;20154;-70
2023/03/05 01:11:02;;;;;;;16.08;8.77;;;;;;;6.88;73.21;101803.19;4937057;29;20013;-71
2023/03/05 01:13:30;;;;;;;14.52;8.95;;;;;;;7.07;72.67;101790.72;4924386;29;20040;-65
2023/03/05 01:15:57;;;;;;;13.57;8.45;;;;;;;7.21;72.09;101802.03;4922300;29;20058;-65
2023/03/05 01:18:25;;;;;;;16.40;9.18;;;;;;;7.12;72.37;101798.16;4922030;29;20446;-67
2023/03/05 01:20:52;;;;;;;15.07;9.45;;;;;;;7.20;71.99;101795.72;4933319;29;20060;-66
2023/03/05 01:23:19;;;;;;;18.08;9.80;;;;;;;6.78;73.43;101794.91;4919242;29;20056;-64
2023/03/05 01:25:57;;;;;;;20.48;9.80;;;;;;;6.79;74.17;101797.38;4917229;29;20059;-66
2023/03/05 01:28:26;;;;;;;14.68;9.95;;;;;;;6.60;74.46;101795.28;4920454;29;20067;-65
2023/03/05 01:30:54;;;;;;;18.02;10.32;;;;;;;6.66;75.11;101784.13;4898997;29;20061;-69
2023/03/05 01:33:22;;;;;;;15.80;9.98;;;;;;;6.49;75.75;101790.81;4914944;29;20373;-71
2023/03/05 01:35:49;;;;;;;14.85;9.93;;;;;;;6.61;75.55;101778.59;4904830;29;20056;-66
2023/03/05 01:38:17;;;;;;;15.50;10.20;;;;;;;6.78;74.79;101773.00;4916227;29;20068;-66
2023/03/05 01:40:44;;;;;;;19.00;10.32;;;;;;;6.92;74.83;101770.63;4900063;29;20052;-66
2023/03/05 01:43:12;;;;;;;16.58;10.07;;;;;;;6.99;74.01;101763.00;4900170;29;20140;-67
2023/03/05 01:46:17;;;;;;;18.23;10.85;;;;;;;6.85;74.95;101768.13;4898958;29;20075;-65
2023/03/05 01:48:55;;;;;;;20.85;11.07;;;;;;;6.82;75.04;101750.28;4885746;29;20420;-65
2023/03/05 01:51:26;;;;;;;18.90;11.10;;;;;;;6.64;76.37;101756.19;4904598;29;20052;-70
2023/03/05 01:53:56;;;;;;;17.63;11.48;;;;;;;6.54;77.12;101756.09;4917675;29;20067;-65
2023/03/05 01:56:24;;;;;;;20.85;12.02;;;;;;;6.75;75.96;101748.88;4916905;29;20060;-65
2023/03/05 01:58:52;;;;;;;19.42;12.27;;;;;;;6.70;76.40;101746.09;4908704;29;20056;-67
2023/03/05 02:01:20;;;;;;;18.50;12.75;;;;;;;6.63;77.29;101743.59;4895387;29;20057;-67
2023/03/05 02:03:48;;;;;;;17.52;12.05;;;;;;;7.06;75.69;101738.94;4882320;29;20064;-67
2023/03/05 02:06:16;;;;;;;17.42;12.05;;;;;;;6.97;75.43;101744.09;4887578;29;20626;-66
2023/03/05 02:08:43;;;;;;;22.23;13.45;;;;;;;6.85;76.20;101738.00;4915567;29;20063;-66
2023/03/05 02:11:11;;;;;;;18.48;13.57;;;;;;;6.93;75.77;101728.44;4899337;29;20436;-66
2023/03/05 02:13:39;;;;;;;19.50;13.25;;;;;;;6.63;77.14;101735.38;4899808;29;20052;-65
2023/03/05 02:16:07;;;;;;;20.88;13.50;;;;;;;6.92;76.87;101722.16;4905797;29;20044;-65
2023/03/05 02:18:35;;;;;;;18.05;13.45;;;;;;;6.59;78.09;101726.03;4919857;29;20055;-70
2023/03/05 02:21:07;;;;;;;22.27;14.02;;;;;;;6.81;77.78;101717.72;4916881;29;20094;-70
2023/03/05 02:23:36;;;;;;;22.98;14.23;;;;;;;6.72;78.33;101722.03;4919887;29;20513;-69
2023/03/05 02:26:08;;;;;;;20.40;14.15;;;;;;;6.87;78.09;101719.38;4916986;29;20044;-69
2023/03/05 02:28:40;;;;;;;22.35;15.07;;;;;;;6.71;78.15;101706.69;4918234;29;20063;-69
2023/03/05 02:31:17;;;;;;;25.25;15.27;;;;;;;6.84;78.73;101717.16;4896340;29;20056;-70
2023/03/05 02:33:45;;;;;;;23.77;15.80;;;;;;;6.47;80.06;101711.72;4886383;29;20072;-70
2023/03/05 02:36:17;;;;;;;28.67;16.38;;;;;;;6.50;80.34;101711.19;4905735;29;20413;-70
2023/03/05 02:38:45;;;;;;;23.40;15.95;;;;;;;6.38;80.93;101696.06;4915393;29;20045;-69
2023/03/05 02:41:14;;;;;;;27.75;17.20;;;;;;;6.29;81.73;101701.19;4910999;29;20040;-69
2023/03/05 02:43:42;;;;;;;26.77;17.27;;;;;;;6.40;81.63;101694.69;4912591;29;20121;-70
2023/03/05 02:46:10;;;;;;;27.38;16.73;;;;;;;6.45;81.36;101685.72;4921704;29;20060;-70
2023/03/05 02:48:38;;;;;;;26.35;17.25;;;;;;;6.51;80.72;101687.38;4914199;29;20060;-70
2023/03/05 02:51:08;;;;;;;22.42;17.10;;;;;;;6.63;80.88;101679.78;4897576;29;20056;-71
2023/03/05 02:53:37;;;;;;;26.05;17.73;;;;;;;6.43;81.33;101679.66;4901141;29;20052;-70
2023/03/05 02:56:04;;;;;;;26.95;18.05;;;;;;;6.68;80.61;101682.56;4898221;29;20052;-71
2023/03/05 02:58:34;;;;;;;24.13;17.48;;;;;;;6.87;80.10;101670.06;4887741;29;20060;-70
2023/03/05 03:01:01;;;;;;;26.35;17.92;;;;;;;6.62;80.37;101668.03;4902845;29;20060;-70
2023/03/05 03:03:29;;;;;;;28.50;19.55;;;;;;;6.60;80.23;101675.69;4887717;29;20048;-70
2023/03/05 03:05:57;;;;;;;25.48;18.75;;;;;;;6.34;81.52;101665.66;4902401;29;20067;-70
2023/03/05 03:08:25;;;;;;;27.25;19.27;;;;;;;6.42;82.26;101669.78;4918560;29;20068;-70
2023/03/05 03:10:55;;;;;;;31.42;19.30;;;;;;;6.55;81.85;101669.34;4911297;29;20051;-70
2023/03/05 03:13:24;;;;;;;28.40;18.83;;;;;;;6.71;80.77;101658.22;4921497;29;20067;-71
2023/03/05 03:16:01;;;;;;;25.40;18.00;;;;;;;6.73;80.84;101663.44;4916600;29;20064;-70
2023/03/05 03:18:28;;;;;;;26.55;18.08;;;;;;;6.71;80.21;101655.47;4902680;29;20057;-71
2023/03/05 03:20:55;;;;;;;29.10;18.13;;;;;;;6.43;81.49;101652.31;4920511;29;20055;-70
2023/03/05 03:23:23;;;;;;;26.23;18.88;;;;;;;6.83;80.80;101652.56;4922973;29;20056;-71
2023/03/05 03:25:51;;;;;;;27.83;18.10;;;;;;;6.43;81.81;101647.63;4909555;29;20056;-70
2023/03/05 03:28:18;;;;;;;24.27;16.98;;;;;;;6.52;81.67;101648.78;4924742;29;20044;-70
2023/03/05 03:30:46;;;;;;;32.75;17.65;;;;;;;6.41;81.83;101643.53;4939104;29;20051;-71
2023/03/05 03:33:13;;;;;;;29.98;17.52;;;;;;;6.39;82.71;101643.78;4928868;29;20056;-70
2023/03/05 03:35:41;;;;;;;26.33;16.95;;;;;;;6.46;81.42;101638.94;4907448;29;20059;-72
2023/03/05 03:38:10;;;;;;;28.98;17.95;;;;;;;6.67;81.31;101642.59;4908871;29;20055;-70
2023/03/05 03:40:39;;;;;;;30.55;18.17;;;;;;;6.32;81.92;101640.47;4938189;29;20055;-72
2023/03/05 03:43:06;;;;;;;24.35;17.25;;;;;;;6.41;82.10;101630.69;4922326;29;20381;-72
2023/03/05 03:45:34;;;;;;;24.35;16.55;;;;;;;6.23;82.48;101636.56;4904232;29;20060;-70
2023/03/05 03:48:01;;;;;;;24.65;15.70;;;;;;;6.21;83.04;101638.72;4939814;29;20511;-70
2023/03/05 03:50:29;;;;;;;24.27;15.93;;;;;;;6.40;82.28;101628.19;4923026;29;20055;-70
2023/03/05 03:52:56;;;;;;;23.35;15.90;;;;;;;6.41;81.59;101622.47;4940591;29;20780;-71
2023/03/05 03:55:24;;;;;;;22.98;15.75;;;;;;;6.17;83.27;101623.91;4923183;29;20059;-70
2023/03/05 03:57:52;;;;;;;22.98;15.63;;;;;;;6.28;83.12;101617.44;4938952;29;20048;-72
2023/03/05 04:00:20;;;;;;;26.15;16.10;;;;;;;6.51;82.63;101610.75;4904382;29;20413;-70
2023/03/05 04:02:48;;;;;;;22.73;14.95;;;;;;;6.59;81.63;101608.34;4906448;29;20056;-72
2023/03/05 04:05:15;;;;;;;23.15;16.02;;;;;;;6.37;82.02;101609.56;4940762;29;20047;-70
2023/03/05 04:07:44;;;;;;;25.77;15.23;;;;;;;6.63;82.07;101606.72;4918145;29;20144;-70
2023/03/05 04:10:11;;;;;;;22.67;15.45;;;;;;;6.46;81.34;101607.97;4889015;29;20051;-71
2023/03/05 04:12:42;;;;;;;23.55;15.15;;;;;;;6.41;81.65;101610.69;4914159;29;20408;-72
2023/03/05 04:15:10;;;;;;;20.55;14.57;;;;;;;6.57;81.65;101607.78;4904421;29;20064;-71
2023/03/05 04:17:37;;;;;;;24.92;15.52;;;;;;;6.72;80.84;101607.88;4935107;29;20511;-74
2023/03/05 04:20:07;;;;;;;21.42;15.25;;;;;;;6.44;81.31;101604.69;4938952;29;20070;-71
2023/03/05 04:22:34;;;;;;;24.63;14.95;;;;;;;6.62;81.20;101607.81;4938777;29;20054;-70
2023/03/05 04:25:07;;;;;;;20.40;14.20;;;;;;;6.64;80.86;101613.03;4939522;29;20048;-70
2023/03/05 04:27:36;;;;;;;23.75;14.30;;;;;;;6.33;81.78;101613.94;4921687;29;20066;-70
2023/03/05 04:30:04;;;;;;;23.65;15.13;;;;;;;6.47;81.51;101604.16;4938864;29;20163;-71
2023/03/05 04:32:31;;;;;;;22.23;15.07;;;;;;;6.31;81.99;101605.97;4918763;29;20059;-70
2023/03/05 04:34:59;;;;;;;22.65;14.77;;;;;;;6.46;81.73;101603.34;4914095;29;20067;-70
2023/03/05 04:37:27;;;;;;;23.77;15.23;;;;;;;6.48;81.60;101603.91;4918373;29;20067;-71
2023/03/05 04:39:54;;;;;;;27.45;15.02;;;;;;;6.61;80.82;101600.69;4904091;29;20059;-71
2023/03/05 04:42:21;;;;;;;24.55;14.52;;;;;;;6.40;81.89;101598.91;4918255;29;20055;-71
2023/03/05 04:44:49;;;;;;;28.65;15.48;;;;;;;6.34;82.33;101593.69;4915781;29;20048;-70
2023/03/05 04:47:17;;;;;;;21.10;15.25;;;;;;;6.31;82.73;101592.28;4934630;29;20059;-71
2023/03/05 04:49:45;;;;;;;23.25;16.33;;;;;;;6.45;81.96;101588.00;4922932;29;20063;-69
2023/03/05 04:52:13;;;;;;;23.88;14.70;;;;;;;6.66;81.25;101591.66;4902706;29;20059;-72
2023/03/05 04:54:41;;;;;;;21.27;15.07;;;;;;;6.45;81.23;101585.25;4921333;29;20048;-70
2023/03/05 04:57:08;;;;;;;20.80;14.82;;;;;;;6.29;82.28;101583.53;4914809;29;20044;-71
2023/03/05 04:59:37;;;;;;;22.92;15.32;;;;;;;6.15;82.71;101579.63;4916779;29;20495;-70
2023/03/05 05:02:04;;;;;;;23.50;15.05;;;;;;;6.26;82.12;101578.59;4899819;29;20067;-70
2023/03/05 05:04:32;;;;;;;25.73;15.10;;;;;;;6.23;81.99;101576.38;4900905;29;20049;-70
2023/03/05 05:07:00;;;;;;;26.83;15.65;;;;;;;6.37;82.53;101574.00;4914632;29;20059;-70
2023/03/05 05:09:27;;;;;;;25.67;15.35;;;;;;;6.79;80.52;101575.59;4920782;29;20047;-70
2023/03/05 05:11:54;;;;;;;21.50;14.88;;;;;;;6.65;80.30;101570.88;4886828;29;20063;-70
2023/03/05 05:14:22;;;;;;;23.77;15.00;;;;;;;6.46;80.84;101570.50;4920779;29;20059;-71
2023/03/05 05:16:49;;;;;;;19.58;14.68;;;;;;;6.31;82.22;101567.66;4927998;29;20058;-71
2023/03/05 05:19:17;;;;;;;23.42;15.07;;;;;;;6.39;81.75;101556.25;4938764;29;20063;-71
2023/03/05 05:21:44;;;;;;;22.35;15.43;;;;;;;6.20;82.78;101554.19;4925350;29;20067;-71
2023/03/05 05:24:12;;;;;;;22.08;15.27;;;;;;;6.44;81.82;101559.00;4919718;29;20060;-71
2023/03/05 05:26:39;;;;;;;22.38;15.48;;;;;;;6.23;82.86;101559.97;4919231;29;20075;-70
2023/03/05 05:29:06;;;;;;;25.90;16.77;;;;;;;6.16;82.76;101562.09;4903442;29;20384;-70
2023/03/05 05:31:34;;;;;;;22.20;15.68;;;;;;;6.04;83.07;101556.00;4919028;29;20052;-70
2023/03/05 05:34:01;;;;;;;24.83;16.52;;;;;;;6.17;83.59;101555.53;4939192;29;20052;-70
2023/03/05 05:36:28;;;;;;;23.17;16.40;;;;;;;6.28;82.05;101546.31;4926224;29;20051;-69
2023/03/05 05:38:56;;;;;;;24.33;16.38;;;;;;;6.24;81.73;101547.94;4906758;29;20051;-70
2023/03/05 05:41:24;;;;;;;22.60;15.75;;;;;;;6.19;82.20;101553.38;4936776;29;20062;-71
2023/03/05 05:43:51;;;;;;;25.05;15.00;;;;;;;6.00;83.01;101545.88;4939392;29;20067;-71
2023/03/05 05:46:19;;;;;;;20.85;15.13;;;;;;;5.87;84.29;101546.31;4909068;29;20052;-71
2023/03/05 05:48:47;;;;;;;20.73;14.50;;;;;;;6.08;83.25;101542.63;4918709;29;20059;-70
2023/03/05 05:51:17;;;;;;;20.35;13.30;;;;;;;6.01;83.22;101548.34;4910498;29;20055;-71
2023/03/05 05:53:45;;;;;;;20.75;13.48;;;;;;;5.84;83.59;101550.38;4922532;29;20052;-70
2023/03/05 05:56:15;;;;;;;18.05;12.88;;;;;;;5.89;83.67;101542.25;4936307;29;20071;-70
2023/03/05 05:58:45;;;;;;;19.88;12.02;;;;;;;5.94;83.07;101538.72;4931101;29;20048;-70
2023/03/05 06:01:21;;;;;;;19.45;12.95;;;;;;;6.01;83.10;101540.13;4906246;29;20055;-69
2023/03/05 06:03:48;;;;;;;21.90;13.38;;;;;;;6.24;82.92;101542.44;4939098;29;20058;-71
2023/03/05 06:06:18;;;;;;;19.67;12.25;;;;;;;6.22;81.48;101541.09;4920209;29;20067;-69
2023/03/05 06:08:46;;;;;;;21.88;13.30;;;;;;;5.95;83.20;101534.88;4939166;29;20055;-72
2023/03/05 06:11:14;;;;;;;23.33;14.93;;;;;;;6.04;82.77;101531.41;4919727;29;20055;-72
2023/03/05 06:13:45;;;;;;;20.23;12.90;;;;;;;6.29;82.92;101547.16;4922561;29;20062;-70
2023/03/05 06:16:16;;;;;;;26.55;16.13;;;;;;;6.02;82.79;101540.94;4920665;29;20052;-70
2023/03/05 06:18:43;;;;;;;22.58;14.57;;;;;;;5.69;84.30;101537.41;4938687;29;20060;-70
2023/03/05 06:21:14;;;;;;;23.27;14.73;;;;;;;5.56;86.06;101531.56;4935840;29;20056;-70
2023/03/05 06:23:42;;;;;;;24.23;15.25;;;;;;;5.92;85.27;101536.25;4939113;29;20059;-70
2023/03/05 06:26:12;;;;;;;27.65;16.65;;;;;;;5.77;84.64;101536.09;4937322;29;20050;-70
2023/03/05 06:28:39;;;;;;;;;;;;;;;6.11;84.18;101533.91;4922017;29;20060;-70
2023/03/05 06:31:07;;;;;;;29.27;18.35;;;;;;;6.25;82.94;101526.88;4937637;29;19923;-71
2023/03/05 06:33:35;;;;;;;30.40;17.63;;;;;;;6.07;84.50;101536.34;4922131;29;20060;-71
2023/03/05 06:36:07;;;;;;;31.65;18.52;;;;;;;6.30;83.65;101541.41;4919897;29;20067;-72
2023/03/05 06:38:35;;;;;;;26.02;18.20;;;;;;;6.14;83.95;101539.66;4906512;29;20059;-70
2023/03/05 06:41:11;;;;;;;27.88;18.17;;;;;;;6.55;82.94;101538.81;4911974;29;20062;-71
2023/03/05 06:43:40;;;;;;;28.00;17.80;;;;;;;6.39;82.10;101537.09;4910171;29;20514;-72
2023/03/05 06:46:11;;;;;;;31.58;18.70;;;;;;;6.42;82.04;101533.81;4905742;29;20051;-71
2023/03/05 06:48:39;;;;;;;37.97;18.92;;;;;;;6.46;82.16;101543.16;4923294;29;20078;-72
2023/03/05 06:51:21;;;;;;;33.45;18.25;;;;;;;6.36;82.82;101534.06;4921800;29;20040;-72
2023/03/05 06:53:49;;;;;;;30.27;17.83;;;;;;;6.26;83.44;101526.59;4904610;29;20469;-71
2023/03/05 06:56:18;;;;;;;30.42;17.38;;;;;;;6.86;82.06;101531.53;4924023;29;20081;-72
2023/03/05 06:58:48;;;;;;;31.00;17.42;;;;;;;6.55;81.01;101530.59;4927946;29;20058;-71
2023/03/05 07:01:15;;;;;;;26.55;17.00;;;;;;;6.28;82.40;101529.91;4931342;29;20060;-70
2023/03/05 07:03:43;;;;;;;27.98;16.38;;;;;;;6.31;82.88;101525.81;4922988;29;20469;-73
2023/03/05 07:06:14;;;;;;;28.90;16.48;;;;;;;6.22;82.78;101524.69;4925492;29;20040;-72
2023/03/05 07:08:43;;;;;;;24.90;15.93;;;;;;;6.19;82.86;101530.69;4901847;29;20051;-71
2023/03/05 07:11:13;;;;;;;24.93;16.53;;;;;;;6.30;83.36;101533.19;4917879;29;20060;-72
2023/03/05 07:13:41;;;;;;;28.27;16.75;;;;;;;5.99;84.31;101525.06;4923097;29;20059;-70
2023/03/05 07:16:12;;;;;;;27.77;17.60;;;;;;;6.00;84.43;101524.81;4928438;29;20058;-72
2023/03/05 07:18:40;;;;;;;28.95;17.15;;;;;;;5.92;85.36;101533.50;4928370;29;20059;-71
2023/03/05 07:21:08;;;;;;;28.42;16.67;;;;;;;6.19;84.79;101526.00;4900859;29;20049;-72
2023/03/05 07:23:36;;;;;;;27.45;17.00;;;;;;;6.23;84.18;101527.13;4902779;29;20122;-71
2023/03/05 07:26:04;;;;;;;29.30;16.70;;;;;;;6.17;83.94;101530.91;4916789;29;20048;-72
2023/03/05 07:28:32;;;;;;;26.90;16.33;;;;;;;6.12;83.93;101532.81;4922806;29;20052;-72
2023/03/05 07:31:02;;;;;;;28.75;16.15;;;;;;;6.20;83.85;101533.16;4934921;29;20052;-71
2023/03/05 07:33:31;;;;;;;28.13;16.00;;;;;;;6.30;83.55;101526.91;4908031;29;20060;-71
2023/03/05 07:36:00;;;;;;;29.45;16.65;;;;;;;6.04;84.47;101531.41;4910075;29;20056;-72
2023/03/05 07:38:27;;;;;;;26.17;16.02;;;;;;;6.02;84.44;101528.09;4921161;29;20052;-71
2023/03/05 07:40:55;;;;;;;24.05;15.55;;;;;;;6.29;84.36;101533.47;4917625;29;20060;-73
2023/03/05 07:43:22;;;;;;;27.23;15.50;;;;;;;6.36;82.59;101532.13;4922567;29;20480;-72
2023/03/05 07:45:49;;;;;;;23.55;14.43;;;;;;;6.25;83.54;101537.81;4903917;29;20056;-72
2023/03/05 07:48:19;;;;;;;25.30;15.52;;;;;;;5.99;84.46;101531.38;4907489;29;20052;-72
2023/03/05 07:50:47;;;;;;;24.33;14.98;;;;;;;6.06;84.73;101537.44;4911730;29;20059;-72
2023/03/05 07:53:15;;;;;;;25.20;15.90;;;;;;;6.30;84.32;101524.16;4922631;29;20071;-73
2023/03/05 07:55:46;;;;;;;25.83;14.38;;;;;;;6.32;83.47;101532.94;4916550;29;20060;-72
2023/03/05 07:58:13;;;;;;;24.27;14.23;;;;;;;6.13;84.61;101535.28;4918874;29;20045;-71
2023/03/05 08:00:41;;;;;;;22.88;14.35;;;;;;;6.52;83.50;101533.84;4901181;29;20060;-72
2023/03/05 08:03:08;;;;;;;22.63;14.15;;;;;;;6.19;83.06;101531.47;4902895;29;20544;-72
2023/03/05 08:05:38;;;;;;;24.73;14.43;;;;;;;6.06;83.98;101531.97;4901744;29;20083;-72
2023/03/05 08:08:06;;;;;;;24.27;14.68;;;;;;;6.04;84.84;101528.66;4903119;29;20060;-72
2023/03/05 08:10:35;;;;;;;26.77;14.00;;;;;;;6.12;84.02;101535.56;4914103;29;20056;-73
2023/03/05 08:13:03;;;;;;;22.27;13.00;;;;;;;6.21;82.71;101526.56;4920420;29;20496;-71
2023/03/05 08:15:30;;;;;;;20.95;13.30;;;;;;;6.38;82.77;101529.94;4919874;29;20056;-71
2023/03/05 08:17:59;;;;;;;23.42;13.70;;;;;;;6.56;81.39;101532.25;4921293;29;20060;-71
2023/03/05 08:20:26;;;;;;;22.30;13.60;;;;;;;6.46;81.21;101526.72;4905600;29;20076;-72
2023/03/05 08:22:54;;;;;;;20.55;13.10;;;;;;;5.93;83.30;101517.94;4921012;29;20063;-71
2023/03/05 08:25:22;;;;;;;23.45;14.70;;;;;;;5.92;84.23;101514.38;4907676;29;20083;-72
2023/03/05 08:27:50;;;;;;;26.42;14.35;;;;;;;5.94;84.92;101517.66;4900143;29;20146;-72
2023/03/05 08:30:21;;;;;;;22.17;13.35;;;;;;;6.01;84.71;101515.53;4900218;29;20064;-71
2023/03/05 08:32:49;;;;;;;20.27;13.60;;;;;;;6.10;84.73;101516.66;4911279;29;20465;-72
2023/03/05 08:35:16;;;;;;;21.90;13.20;;;;;;;6.09;84.63;101517.75;4913454;29;20436;-72
2023/03/05 08:37:44;;;;;;;26.05;13.88;;;;;;;5.90;84.63;101511.06;4899616;29;20052;-72
2023/03/05 08:40:11;;;;;;;24.13;14.52;;;;;;;5.84;85.37;101514.84;4900157;29;20052;-71
2023/03/05 08:42:39;;;;;;;23.90;13.45;;;;;;;5.94;85.99;101514.09;4901189;29;20052;-72
2023/03/05 08:45:08;;;;;;;24.65;13.85;;;;;;;6.10;85.23;101508.44;4902388;29;20060;-71
2023/03/05 08:47:35;;;;;;;22.42;14.05;;;;;;;6.08;84.31;101507.91;4905107;29;20097;-71
2023/03/05 08:50:02;;;;;;;26.42;15.18;;;;;;;6.02;85.34;101508.97;4902213;29;20064;-71
2023/03/05 08:52:30;;;;;;;24.90;14.75;;;;;;;5.99;85.38;101509.50;4916532;29;20060;-71
2023/03/05 08:54:57;;;;;;;26.58;14.60;;;;;;;6.47;84.21;101505.63;4896823;29;20068;-71
2023/03/05 08:57:25;;;;;;;22.25;13.30;;;;;;;6.39;82.82;101496.03;4900025;29;20044;-71
2023/03/05 08:59:52;;;;;;;20.98;12.95;;;;;;;6.31;81.58;101502.00;4900389;29;20056;-71
2023/03/05 09:02:20;;;;;;;21.13;13.23;;;;;;;6.17;82.32;101506.31;4900417;29;20048;-71
2023/03/05 09:04:47;;;;;;;20.13;12.60;;;;;;;6.32;81.49;101498.19;4900942;29;20053;-71
2023/03/05 09:07:14;;;;;;;20.17;12.90;;;;;;;6.40;81.60;101502.31;4899285;29;20512;-71
2023/03/05 09:09:42;;;;;;;21.83;13.45;;;;;;;6.10;82.27;101505.72;4899689;29;20055;-71
2023/03/05 09:12:10;;;;;;;20.95;12.73;;;;;;;6.30;81.93;101497.63;4900466;29;20056;-71
2023/03/05 09:14:39;;;;;;;20.00;12.83;;;;;;;6.05;81.45;101497.47;4901210;29;20068;-71
2023/03/05 09:17:07;;;;;;;25.95;13.75;;;;;;;6.03;81.64;101496.13;4900210;29;20312;-70
2023/03/05 09:19:35;;;;;;;22.90;13.52;;;;;;;6.48;81.19;101491.72;4906990;29;20492;-72
2023/03/05 09:22:02;;;;;;;19.50;12.55;;;;;;;6.80;79.07;101484.13;4919054;29;20512;-70
2023/03/05 09:24:30;;;;;;;20.35;13.18;;;;;;;6.84;78.42;101488.00;4920480;29;20052;-71
2023/03/05 09:26:59;;;;;;;20.08;12.02;;;;;;;6.99;77.71;101492.66;4926384;29;20043;-71
2023/03/05 09:29:27;;;;;;;26.02;13.10;;;;;;;6.97;76.87;101488.56;4920454;29;20060;-72
2023/03/05 09:31:54;;;;;;;22.13;12.73;;;;;;;7.06;77.31;101490.47;4912631;29;20403;-71
2023/03/05 09:34:26;;;;;;;20.92;12.55;;;;;;;6.62;77.49;101492.88;4918987;29;20064;-72
2023/03/05 09:36:54;;;;;;;20.90;12.57;;;;;;;6.67;78.77;101490.13;4931464;29;20052;-73
2023/03/05 09:39:21;;;;;;;25.65;13.15;;;;;;;6.35;79.11;101486.72;4906589;29;20058;-72
2023/03/05 09:42:07;;;;;;;23.10;13.48;;;;;;;6.72;79.00;101481.94;4934012;29;20056;-72
2023/03/05 09:44:54;;;;;;;23.17;13.50;;;;;;;6.80;78.68;101477.81;4918623;29;20055;-71
2023/03/05 09:47:34;;;;;;;24.42;14.60;;;;;;;6.50;79.02;101478.56;4934018;29;20056;-72
2023/03/05 09:50:31;;;;;;;26.13;15.00;;;;;;;6.49;79.55;101479.66;4939458;29;20055;-72
2023/03/05 09:53:05;;;;;;;23.80;14.13;;;;;;;6.60;79.42;101477.78;4903898;29;20378;-73
2023/03/05 09:55:39;;;;;;;27.08;15.15;;;;;;;6.55;79.37;101470.38;4901699;29;20052;-71
2023/03/05 09:58:12;;;;;;;25.02;15.45;;;;;;;6.41;79.95;101473.88;4918849;29;20044;-72
2023/03/05 10:00:58;;;;;;;26.90;15.55;;;;;;;6.54;80.05;101460.53;4911875;29;20052;-69
2023/03/05 10:03:41;;;;;;;24.85;14.10;;;;;;;6.84;78.54;101457.03;4918845;29;20056;-69
2023/03/05 10:06:24;;;;;;;22.17;14.10;;;;;;;7.37;76.40;101447.50;4915879;29;20048;-71
2023/03/05 10:09:10;;;;;;;26.02;15.88;;;;;;;7.44;75.40;101445.31;4921512;29;20510;-69
2023/03/05 10:11:48;;;;;;;24.05;15.50;;;;;;;8.32;75.80;101433.59;4921967;29;20068;-68
2023/03/05 10:14:33;;;;;;;21.52;13.57;;;;;;;8.95;68.57;101429.97;4902367;29;20078;-70
2023/03/05 10:17:30;;;;;;;19.77;13.73;;;;;;;7.87;69.84;101428.25;4895150;29;20052;-73
2023/03/05 10:20:16;;;;;;;24.60;15.05;;;;;;;6.96;74.03;101440.38;4914522;29;20060;-73
2023/03/05 10:23:23;;;;;;;22.75;14.48;;;;;;;7.12;74.79;101431.06;4918221;29;20396;-72
2023/03/05 10:25:53;;;;;;;24.60;15.90;;;;;;;7.55;73.80;101428.56;4910933;29;20048;-73
2023/03/05 10:28:35;;;;;;;25.90;16.10;;;;;;;7.50;72.93;101420.38;4920247;29;20051;-71
2023/03/05 10:31:32;;;;;;;27.38;16.38;;;;;;;7.92;72.52;101415.34;4918668;29;20056;-72
2023/03/05 10:34:22;;;;;;;22.55;14.05;;;;;;;7.87;70.46;101412.63;4907938;29;20388;-71
2023/03/05 10:36:49;;;;;;;23.60;13.68;;;;;;;7.76;70.16;101410.16;4918919;29;20044;-72
2023/03/05 10:39:17;;;;;;;22.90;12.02;;;;;;;7.24;68.01;101415.16;4917551;29;20056;-71
2023/03/05 10:42:11;;;;;;;19.48;11.82;;;;;;;7.15;68.82;101420.38;4915934;29;20052;-74
2023/03/05 10:44:59;;;;;;;17.67;10.73;;;;;;;6.47;71.92;101413.41;4902073;29;20716;-71
2023/03/05 10:47:56;;;;;;;18.67;11.13;;;;;;;6.70;72.31;101412.94;4921095;29;20063;-72
2023/03/05 10:50:26;;;;;;;21.60;13.10;;;;;;;6.27;74.16;101407.06;4896353;29;20059;-71
2023/03/05 10:53:08;;;;;;;23.60;13.35;;;;;;;6.66;74.29;101411.00;4907056;29;20052;-73
2023/03/05 10:55:35;;;;;;;22.85;12.23;;;;;;;6.92;73.38;101409.97;4921490;29;20067;-72
2023/03/05 10:58:10;;;;;;;21.77;12.38;;;;;;;6.90;72.96;101414.06;4925660;29;20051;-72
2023/03/05 11:00:38;;;;;;;16.48;11.10;;;;;;;6.90;72.51;101400.38;4907947;29;20052;-73
2023/03/05 11:03:07;;;;;;;22.15;11.90;;;;;;;6.80;71.32;101406.66;4924662;29;20052;-73
2023/03/05 11:05:38;;;;;;;22.33;10.80;;;;;;;6.96;71.54;101404.78;4920046;29;20071;-71
2023/03/05 11:08:29;;;;;;;19.73;11.50;;;;;;;6.57;72.95;101397.03;4909908;29;20143;-72
2023/03/05 11:11:08;;;;;;;18.33;11.65;;;;;;;6.55;73.33;101403.88;4922723;29;20063;-72
2023/03/05 11:13:43;;;;;;;17.77;10.50;;;;;;;6.73;72.28;101400.59;4906171;29;20519;-73
2023/03/05 11:16:28;;;;;;;17.52;9.90;;;;;;;6.73;72.39;101398.69;4921705;29;20500;-72
2023/03/05 11:19:16;;;;;;;17.17;9.52;;;;;;;6.78;71.89;101390.50;4903500;29;20052;-72
2023/03/05 11:21:46;;;;;;;19.35;9.68;;;;;;;6.85;71.49;101391.03;4920878;29;20559;-72
2023/03/05 11:24:17;;;;;;;15.07;8.57;;;;;;;7.14;71.16;101385.03;4918486;29;20056;-74
2023/03/05 11:26:52;;;;;;;13.13;8.05;;;;;;;6.91;69.06;101388.31;4899467;29;20071;-73
2023/03/05 11:29:22;;;;;;;13.00;7.45;;;;;;;6.85;69.22;101391.03;4913371;29;20420;-73
2023/03/05 11:31:49;;;;;;;13.30;8.02;;;;;;;7.04;69.18;101385.03;4917958;29;20055;-71
2023/03/05 11:34:17;;;;;;;13.45;8.60;;;;;;;6.78;70.01;101385.00;4923040;29;20512;-74